Pagrindinis puslapis
METAR-TAF:

METAR-TAF

Oro uostai :

Turaif, Saudo Arabija

platuma: 31-41N, ilguma: 038-44E, Aukštis: 813 m

Dabartinis oras

Ataskaita buvo paskelbta 1 valandą ir 0 minutes, ne 22:00 UTC
Vėjas 11 kt iš Šiaurės Rytų
Temperatūra 27°C
Drėgmė 26%
Slėgis 1015 hPa
Matomumas 10 km arba daugiau
nėra debesų žemiau 1500 m ir nėra kamuolinių lietaus debesų

METAR: OETR 052200Z 05011KT CAVOK 27/06 Q1015

Laikas: 02:00 (23:00 UTC)

Prognozė

Ataskaita buvo paskelbta 12 valandos ir 0 minutes, ne 11:00 UTC
Prognozė galioja nuo 05 metu 12 UTC su 06 metu 18 UTC
Vėjas 13 kt iš Pietvakarių
Matomumas: 6000 m
Mažai debesys ne aukštis 4000 ft
Išsisklaidę debesys ne aukštis 10000 ft
Tapsmas
nuo 05 metu 15 UTC su 05 metu 17 UTC
Vėjas 14 kt iš Rytų/Šiaurės Rytų

TAF: OETR 051100Z 0512/0618 22013KT 6000 FEW040 SCT100 BECMG 0515/0517 07014KT

Orai ataskaitas ir orų prognozės (METAR, TAF).

turimą stotys yra geltonos ir raudonos taškus žemėlapyje.

Perkelti pele per norėdami pamatyti stoties vardą.

Tada spustelėkite, norėdami matyti oro stebėjimo ir prognozės.

Norėdami pakeisti žemėlapį: spustelėkite ant žalios mygtukų su juodo kryžiaus žemyn,; žalią mygtuką su brūkšneliu, jei norite nutolinti; arba žalių rodyklių gretimoms žemėlapius.


METAR-TAF: